Time,TemperatureF,DewpointF,PressureIn,WindDirection,WindDirectionDegrees,WindSpeedMPH,WindSpeedGustMPH,Humidity,HourlyPrecipIn,Conditions,Clouds,dailyrainin,SoftwareType,DateUTC
2013-01-14 00:04:00,47.0,45.0,30.00,SE,135,0.0,0.0,92,0.00,,,0.00,,2013-01-14 05:04:00,
2013-01-14 00:12:00,47.0,45.0,30.00,SE,135,0.0,0.0,92,0.00,,,0.00,,2013-01-14 05:12:00,
2013-01-14 00:22:00,48.0,46.0,30.00,SE,135,0.0,0.0,92,0.00,,,0.00,,2013-01-14 05:22:00,
2013-01-14 00:33:00,48.0,46.0,29.99,SSE,158,0.0,0.0,92,0.00,,,0.00,,2013-01-14 05:33:00,
2013-01-14 00:42:00,48.0,46.0,29.99,SSE,158,0.0,0.0,92,0.00,,,0.00,,2013-01-14 05:42:00,
2013-01-14 00:51:00,48.0,46.0,29.98,SSE,158,0.0,0.0,92,0.00,,,0.00,,2013-01-14 05:51:00,
2013-01-14 00:52:00,48.0,46.0,29.99,SSE,158,0.0,0.0,92,0.00,,,0.00,,2013-01-14 05:52:00,
2013-01-14 01:03:00,48.0,46.0,29.99,SSE,158,0.0,0.0,92,0.00,,,0.00,,2013-01-14 06:03:00,
2013-01-14 01:12:00,48.0,46.0,29.99,SSE,158,0.0,0.0,92,0.00,,,0.00,,2013-01-14 06:12:00,
2013-01-14 01:23:00,48.0,46.0,29.98,SSE,158,0.0,0.0,92,0.00,,,0.00,,2013-01-14 06:23:00,
2013-01-14 01:33:00,48.0,46.0,29.98,SSE,158,0.0,0.0,92,0.00,,,0.00,,2013-01-14 06:33:00,
2013-01-14 01:43:00,48.0,46.0,29.98,SSE,158,0.0,0.0,92,0.00,,,0.00,,2013-01-14 06:43:00,
2013-01-14 02:02:00,48.0,46.0,29.99,SSW,203,0.0,0.0,93,0.00,,,0.00,,2013-01-14 07:02:00,
2013-01-14 02:12:00,48.0,46.0,29.99,SSW,203,0.0,0.0,93,0.00,,,0.00,,2013-01-14 07:12:00,
2013-01-14 02:23:00,48.0,46.0,29.99,SSW,203,0.0,0.0,93,0.00,,,0.00,,2013-01-14 07:23:00,
2013-01-14 02:33:00,48.0,46.0,29.99,SSW,203,0.0,0.0,93,0.00,,,0.00,,2013-01-14 07:33:00,
2013-01-14 02:42:00,48.0,46.0,29.99,SSW,203,0.0,0.0,93,0.00,,,0.00,,2013-01-14 07:42:00,
2013-01-14 02:52:00,48.0,46.0,29.99,SSW,203,0.0,0.0,93,0.00,,,0.00,,2013-01-14 07:52:00,
2013-01-14 03:02:00,49.0,47.0,29.98,West,270,0.0,0.0,93,0.00,,,0.00,,2013-01-14 08:02:00,
2013-01-14 03:12:00,49.0,47.0,29.98,West,270,0.0,0.0,93,0.00,,,0.00,,2013-01-14 08:12:00,
2013-01-14 03:22:00,49.0,47.0,29.99,NW,315,0.0,0.0,93,0.00,,,0.00,,2013-01-14 08:22:00,
2013-01-14 03:31:00,48.0,46.0,29.97,WSW,248,0.0,0.0,93,0.00,,,0.00,,2013-01-14 08:31:00,
2013-01-14 03:33:00,49.0,47.0,29.98,West,270,0.0,0.0,93,0.00,,,0.00,,2013-01-14 08:33:00,
2013-01-14 03:42:00,49.0,47.0,29.98,West,270,0.0,0.0,93,0.00,,,0.00,,2013-01-14 08:42:00,
2013-01-14 03:53:00,48.0,46.0,29.97,WSW,248,0.0,0.0,93,0.00,,,0.00,,2013-01-14 08:53:00,
2013-01-14 04:03:00,48.0,46.0,29.97,WSW,248,0.0,0.0,93,0.00,,,0.00,,2013-01-14 09:03:00,
2013-01-14 04:12:00,48.0,46.0,29.97,WSW,248,0.0,0.0,93,0.00,,,0.00,,2013-01-14 09:12:00,
2013-01-14 04:23:00,48.0,46.0,29.97,WSW,248,0.0,0.0,93,0.00,,,0.00,,2013-01-14 09:23:00,
2013-01-14 13:13:00,56.0,53.0,30.00,WSW,248,4.0,4.0,91,0.00,,,0.00,,2013-01-14 18:13:00,
2013-01-14 13:23:00,56.0,53.0,30.00,WSW,248,4.0,4.0,91,0.00,,,0.00,,2013-01-14 18:23:00,
2013-01-14 13:33:00,56.0,52.0,30.00,WNW,293,5.0,5.0,88,0.00,,,0.00,,2013-01-14 18:33:00,
2013-01-14 13:43:00,56.0,52.0,30.00,WNW,293,5.0,5.0,88,0.00,,,0.00,,2013-01-14 18:43:00,
2013-01-14 13:52:00,56.0,52.0,30.02,WNW,293,3.0,5.0,88,0.00,,,0.00,,2013-01-14 18:52:00,
2013-01-14 14:03:00,56.0,52.0,30.02,WNW,293,3.0,5.0,88,0.00,,,0.00,,2013-01-14 19:03:00,
2013-01-14 14:12:00,56.0,52.0,30.02,WNW,293,3.0,5.0,88,0.00,,,0.00,,2013-01-14 19:12:00,
2013-01-14 14:22:00,59.0,51.0,30.02,NNW,338,7.0,9.0,76,0.00,,,0.00,,2013-01-14 19:22:00,
2013-01-14 14:33:00,59.0,51.0,30.02,NNW,338,7.0,9.0,76,0.00,,,0.00,,2013-01-14 19:33:00,
2013-01-14 14:43:00,59.0,51.0,30.02,NNW,338,7.0,9.0,76,0.00,,,0.00,,2013-01-14 19:43:00,
2013-01-14 14:52:00,59.0,51.0,30.02,NNW,338,7.0,9.0,76,0.00,,,0.00,,2013-01-14 19:52:00,
2013-01-14 15:34:00,52.0,42.0,30.09,West,270,0.0,7.0,69,0.00,,,0.00,,2013-01-14 20:34:00,
2013-01-14 15:43:00,52.0,42.0,30.09,West,270,0.0,7.0,69,0.00,,,0.00,,2013-01-14 20:43:00,
2013-01-14 15:53:00,51.0,41.0,30.09,West,270,3.0,5.0,68,0.00,,,0.00,,2013-01-14 20:53:00,
2013-01-14 16:03:00,50.0,39.0,30.08,North,355,8.0,10.0,67,0.00,,,0.00,,2013-01-14 21:03:00,
2013-01-14 16:12:00,50.0,39.0,30.08,North,355,8.0,10.0,67,0.00,,,0.00,,2013-01-14 21:12:00,
2013-01-14 16:23:00,50.0,39.0,30.09,NE,45,2.0,10.0,67,0.00,,,0.00,,2013-01-14 21:23:00,
2013-01-14 16:33:00,49.0,39.0,30.09,NE,45,0.0,0.0,67,0.00,,,0.00,,2013-01-14 21:33:00,
2013-01-14 16:43:00,49.0,39.0,30.09,NE,45,0.0,0.0,67,0.00,,,0.00,,2013-01-14 21:43:00,
2013-01-14 16:53:00,48.0,37.0,30.09,North,356,3.0,3.0,65,0.00,,,0.00,,2013-01-14 21:53:00,
2013-01-14 17:03:00,47.0,35.0,30.12,NNE,23,4.0,7.0,63,0.00,,,0.00,,2013-01-14 22:03:00,
2013-01-14 17:12:00,47.0,35.0,30.12,NNE,23,4.0,7.0,63,0.00,,,0.00,,2013-01-14 22:12:00,
2013-01-14 17:23:00,47.0,35.0,30.12,North,0,0.0,4.0,64,0.00,,,0.00,,2013-01-14 22:23:00,
2013-01-14 17:33:00,46.0,35.0,30.11,NNE,23,2.0,4.0,65,0.00,,,0.00,,2013-01-14 22:33:00,
2013-01-14 17:43:00,46.0,35.0,30.11,NNE,23,2.0,4.0,65,0.00,,,0.00,,2013-01-14 22:43:00,
2013-01-14 17:52:00,46.0,35.0,30.11,NE,45,0.0,6.0,66,0.00,,,0.00,,2013-01-14 22:52:00,
2013-01-14 18:03:00,45.0,35.0,30.12,NW,315,0.0,0.0,67,0.00,,,0.00,,2013-01-14 23:03:00,
2013-01-14 18:12:00,45.0,35.0,30.12,NW,315,0.0,0.0,67,0.00,,,0.00,,2013-01-14 23:12:00,
2013-01-14 18:23:00,44.0,33.0,30.12,NNE,23,0.0,0.0,66,0.00,,,0.00,,2013-01-14 23:23:00,
2013-01-14 18:33:00,44.0,34.0,30.12,NNE,23,0.0,0.0,67,0.00,,,0.00,,2013-01-14 23:33:00,
2013-01-14 18:43:00,44.0,34.0,30.12,NNE,23,0.0,0.0,67,0.00,,,0.00,,2013-01-14 23:43:00,
2013-01-14 18:53:00,43.0,33.0,30.12,North,0,0.0,0.0,67,0.00,,,0.00,,2013-01-14 23:53:00,
2013-01-14 19:03:00,43.0,33.0,30.12,North,0,0.0,0.0,68,0.00,,,0.00,,2013-01-15 00:03:00,
2013-01-14 19:12:00,43.0,33.0,30.12,North,0,0.0,0.0,68,0.00,,,0.00,,2013-01-15 00:12:00,
2013-01-14 19:23:00,43.0,33.0,30.12,NNE,23,0.0,0.0,68,0.00,,,0.00,,2013-01-15 00:23:00,
2013-01-14 19:33:00,43.0,33.0,30.15,NNE,23,0.0,0.0,68,0.00,,,0.00,,2013-01-15 00:33:00,
2013-01-14 19:43:00,43.0,33.0,30.15,NNE,23,0.0,0.0,68,0.00,,,0.00,,2013-01-15 00:43:00,
2013-01-14 19:52:00,43.0,33.0,30.14,North,0,0.0,0.0,68,0.00,,,0.00,,2013-01-15 00:52:00,
2013-01-14 20:02:00,42.0,32.0,30.17,NNE,23,6.0,6.0,67,0.00,,,0.00,,2013-01-15 01:02:00,
2013-01-14 20:12:00,42.0,32.0,30.17,NW,315,3.0,3.0,67,0.00,,,0.00,,2013-01-15 01:12:00,
2013-01-14 20:22:00,42.0,32.0,30.17,NW,315,3.0,3.0,67,0.00,,,0.00,,2013-01-15 01:22:00,
2013-01-14 20:32:00,42.0,31.0,30.18,NNE,23,2.0,2.0,66,0.00,,,0.00,,2013-01-15 01:32:00,
2013-01-14 20:43:00,42.0,31.0,30.18,NNE,23,2.0,2.0,66,0.00,,,0.00,,2013-01-15 01:43:00,
2013-01-14 20:52:00,42.0,31.0,30.19,NW,315,4.0,4.0,66,0.00,,,0.00,,2013-01-15 01:52:00,
2013-01-14 21:02:00,42.0,31.0,30.19,NE,45,4.0,4.0,66,0.00,,,0.00,,2013-01-15 02:02:00,
2013-01-14 21:12:00,42.0,31.0,30.19,NE,45,4.0,4.0,66,0.00,,,0.00,,2013-01-15 02:12:00,
2013-01-14 21:23:00,42.0,31.0,30.18,NE,45,3.0,6.0,66,0.00,,,0.00,,2013-01-15 02:23:00,
2013-01-14 21:33:00,41.0,31.0,30.19,NNE,23,6.0,8.0,66,0.00,,,0.00,,2013-01-15 02:33:00,
2013-01-14 21:42:00,41.0,31.0,30.19,NNE,23,6.0,8.0,66,0.00,,,0.00,,2013-01-15 02:42:00,
2013-01-14 21:52:00,41.0,31.0,30.17,North,0,6.0,8.0,66,0.00,,,0.00,,2013-01-15 02:52:00,
2013-01-14 22:03:00,40.0,30.0,30.19,North,0,2.0,2.0,67,0.00,,,0.00,,2013-01-15 03:03:00,
2013-01-14 22:12:00,40.0,30.0,30.19,North,0,2.0,2.0,67,0.00,,,0.00,,2013-01-15 03:12:00,
2013-01-14 22:22:00,40.0,30.0,30.19,West,270,0.0,5.0,68,0.00,,,0.00,,2013-01-15 03:22:00,
2013-01-14 22:33:00,40.0,30.0,30.20,NNE,23,0.0,3.0,68,0.00,,,0.00,,2013-01-15 03:33:00,
2013-01-14 22:42:00,40.0,30.0,30.20,NNE,23,0.0,3.0,68,0.00,,,0.00,,2013-01-15 03:42:00,
2013-01-14 22:52:00,39.0,30.0,30.21,North,4,3.0,5.0,71,0.00,,,0.00,,2013-01-15 03:52:00,
2013-01-14 23:03:00,37.0,30.0,30.24,NW,315,2.0,5.0,75,0.00,,,0.00,,2013-01-15 04:03:00,
2013-01-14 23:12:00,37.0,30.0,30.24,NW,315,2.0,5.0,75,0.00,,,0.00,,2013-01-15 04:12:00,
2013-01-14 23:22:00,37.0,30.0,30.24,NW,315,0.0,4.0,76,0.00,,,0.00,,2013-01-15 04:22:00,
2013-01-14 23:32:00,36.0,30.0,30.23,NNE,23,0.0,3.0,78,0.00,,,0.00,,2013-01-15 04:32:00,
2013-01-14 23:42:00,36.0,30.0,30.23,NNE,23,0.0,3.0,78,0.00,,,0.00,,2013-01-15 04:42:00,
2013-01-14 23:52:00,36.0,30.0,30.21,NNE,23,0.0,5.0,78,0.00,,,0.00,,2013-01-15 04:52:00,